createdAt,value
2019-03-26T00:00:09.489Z,4.15
2019-03-26T00:05:12.948Z,4.93
2019-03-26T00:10:16.404Z,3.10
2019-03-26T00:15:19.865Z,3.93
2019-03-26T00:20:23.321Z,3.47
2019-03-26T00:25:26.779Z,3.45
2019-03-26T00:30:30.239Z,3.17
2019-03-26T00:35:33.695Z,3.35
2019-03-26T00:40:40.058Z,2.70
2019-03-26T00:45:42.345Z,3.02
2019-03-26T00:50:45.876Z,3.95
2019-03-26T00:55:49.348Z,2.87
2019-03-26T01:00:52.803Z,3.85
2019-03-26T01:05:56.265Z,2.80
2019-03-26T01:10:59.724Z,3.10
2019-03-26T01:16:03.356Z,3.77
2019-03-26T01:21:06.816Z,2.70
2019-03-26T01:26:10.278Z,3.70
2019-03-26T01:31:13.737Z,3.02
2019-03-26T01:36:17.198Z,2.40
2019-03-26T01:41:20.655Z,2.62
2019-03-26T01:46:24.117Z,2.27
2019-03-26T01:51:27.580Z,2.92
2019-03-26T01:56:31.040Z,2.80
2019-03-26T02:01:34.503Z,2.30
2019-03-26T02:06:37.960Z,2.40
2019-03-26T02:11:41.429Z,2.55
2019-03-26T02:16:44.890Z,2.70
2019-03-26T02:21:48.360Z,2.03
2019-03-26T02:26:51.833Z,2.75
2019-03-26T02:31:55.283Z,2.60
2019-03-26T02:36:58.783Z,2.40
2019-03-26T02:42:02.227Z,2.30
2019-03-26T02:47:05.697Z,2.33
2019-03-26T02:52:09.165Z,2.62
2019-03-26T02:57:12.630Z,2.15
2019-03-26T03:02:16.101Z,2.60
2019-03-26T03:07:19.569Z,2.70
2019-03-26T03:12:23.023Z,2.58
2019-03-26T03:17:26.486Z,2.55
2019-03-26T03:22:30.325Z,2.90
2019-03-26T03:27:33.786Z,2.20
2019-03-26T03:32:37.255Z,3.35
2019-03-26T03:37:40.724Z,4.35
2019-03-26T03:42:44.193Z,2.45
2019-03-26T03:47:48.289Z,3.62
2019-03-26T03:52:52.091Z,2.45
2019-03-26T03:57:58.606Z,2.67
2019-03-26T04:03:03.509Z,2.08
2019-03-26T04:08:06.979Z,1.75
2019-03-26T04:13:10.433Z,2.08
2019-03-26T04:18:13.985Z,2.25
2019-03-26T04:23:17.432Z,1.72
2019-03-26T04:28:20.905Z,1.95
2019-03-26T04:33:24.370Z,2.08
2019-03-26T04:38:27.825Z,1.52
2019-03-26T04:43:31.283Z,1.55
2019-03-26T04:48:34.744Z,1.85
2019-03-26T04:53:38.373Z,2.00
2019-03-26T04:58:43.947Z,1.70
2019-03-26T05:03:47.010Z,1.85
2019-03-26T05:08:50.475Z,1.63
2019-03-26T05:13:53.932Z,3.87
2019-03-26T05:18:57.388Z,1.77
2019-03-26T05:24:00.844Z,1.67
2019-03-26T05:29:04.367Z,1.75
2019-03-26T05:34:07.827Z,1.45
2019-03-26T05:39:11.297Z,4.95
2019-03-26T05:44:14.738Z,1.65
2019-03-26T05:49:18.200Z,1.55
2019-03-26T05:54:21.655Z,1.42
2019-03-26T05:59:25.111Z,2.12
2019-03-26T06:04:28.663Z,1.90
2019-03-26T06:09:32.107Z,1.45
2019-03-26T06:14:35.564Z,1.20
2019-03-26T06:19:39.019Z,1.70
2019-03-26T06:24:42.476Z,2.30
2019-03-26T06:29:45.942Z,1.60
2019-03-26T06:34:49.396Z,2.40
2019-03-26T06:39:52.861Z,2.40
2019-03-26T06:44:56.324Z,1.60
2019-03-26T06:49:59.784Z,1.57
2019-03-26T06:55:04.487Z,1.82
2019-03-26T07:00:10.289Z,1.05
2019-03-26T07:05:13.817Z,1.90
2019-03-26T07:10:20.331Z,1.70
2019-03-26T07:15:23.787Z,1.50
2019-03-26T07:20:27.246Z,2.58
2019-03-26T07:25:30.704Z,1.30
2019-03-26T07:30:42.362Z,1.47
2019-03-26T07:35:45.825Z,1.37
2019-03-26T07:40:49.283Z,2.20
2019-03-26T07:45:52.742Z,2.37
2019-03-26T07:50:56.204Z,4.28
2019-03-26T07:55:59.676Z,6.33
2019-03-26T08:01:03.144Z,4.07
2019-03-26T08:06:06.594Z,5.58
2019-03-26T08:11:10.059Z,4.37
2019-03-26T08:16:13.547Z,5.35
2019-03-26T08:21:16.982Z,5.83
2019-03-26T08:26:20.440Z,4.45
2019-03-26T08:31:23.903Z,4.80
2019-03-26T08:36:27.361Z,3.80
2019-03-26T08:41:30.828Z,4.35
2019-03-26T08:46:34.287Z,4.93
2019-03-26T08:51:37.746Z,3.55
2019-03-26T08:56:41.215Z,6.07
2019-03-26T09:01:44.675Z,3.08
2019-03-26T09:06:48.140Z,5.97
2019-03-26T09:11:51.592Z,4.62
2019-03-26T09:16:55.054Z,3.33
2019-03-26T09:21:58.538Z,3.70
2019-03-26T09:27:02.027Z,2.08
2019-03-26T09:32:05.490Z,1.97
2019-03-26T09:37:08.971Z,1.87
2019-03-26T09:42:12.453Z,2.90
2019-03-26T09:47:16.781Z,2.27
2019-03-26T09:52:20.347Z,3.67
2019-03-26T09:57:23.808Z,2.45
2019-03-26T10:02:27.264Z,2.52
2019-03-26T10:07:30.731Z,3.42
2019-03-26T10:12:34.190Z,2.12
2019-03-26T10:17:37.922Z,1.55
2019-03-26T10:22:41.389Z,2.83
2019-03-26T10:27:44.850Z,9.83
2019-03-26T10:32:48.316Z,2.30
2019-03-26T10:37:51.779Z,1.85
2019-03-26T10:42:55.231Z,3.55
2019-03-26T10:47:59.028Z,5.25
2019-03-26T10:53:02.491Z,2.00
2019-03-26T10:58:05.963Z,1.87
2019-03-26T11:03:09.413Z,1.82
2019-03-26T11:08:12.880Z,2.80
2019-03-26T11:13:16.341Z,2.90
2019-03-26T11:18:19.808Z,7.33
2019-03-26T11:23:23.273Z,6.72
2019-03-26T11:28:26.728Z,5.93
2019-03-26T11:33:30.188Z,3.67
2019-03-26T11:38:33.656Z,2.73
2019-03-26T11:43:37.113Z,3.25
2019-03-26T11:48:40.571Z,3.98
2019-03-26T11:53:44.027Z,2.22
2019-03-26T11:58:47.484Z,2.22
2019-03-26T12:03:50.943Z,2.83
2019-03-26T12:08:54.434Z,6.30
2019-03-26T12:13:57.891Z,2.77
2019-03-26T12:19:01.354Z,1.90
2019-03-26T12:24:04.808Z,5.37
2019-03-26T12:29:08.270Z,3.20
2019-03-26T12:34:11.751Z,2.80
2019-03-26T12:39:15.228Z,2.30
2019-03-26T12:44:18.688Z,1.07
2019-03-26T12:49:22.156Z,4.12
2019-03-26T12:54:25.626Z,5.17
2019-03-26T12:59:29.096Z,15.43
2019-03-26T13:04:32.557Z,5.05
2019-03-26T13:09:36.023Z,8.13
2019-03-26T13:14:39.483Z,4.12
2019-03-26T13:19:42.945Z,4.17
2019-03-26T13:24:46.409Z,6.60
2019-03-26T13:29:49.874Z,6.67
2019-03-26T13:34:54.197Z,4.30
2019-03-26T13:39:57.662Z,5.53
2019-03-26T13:45:01.140Z,4.65
2019-03-26T13:50:06.630Z,8.37
2019-03-26T13:55:10.428Z,6.78
2019-03-26T14:00:14.431Z,10.35
2019-03-26T14:05:25.809Z,11.27
2019-03-26T14:10:40.240Z,7.83
2019-03-26T14:15:34.619Z,10.25
2019-03-26T14:20:38.101Z,9.35
2019-03-26T14:25:41.575Z,12.05
2019-03-26T14:30:45.122Z,11.55
2019-03-26T14:35:48.606Z,10.48
2019-03-26T14:40:55.260Z,10.72
2019-03-26T14:45:57.297Z,10.03
2019-03-26T14:51:00.777Z,10.82
2019-03-26T14:56:04.264Z,10.45
2019-03-26T15:01:07.743Z,8.98
2019-03-26T15:06:11.222Z,12.63
2019-03-26T15:11:14.701Z,10.60
2019-03-26T15:16:18.262Z,10.05
2019-03-26T15:21:21.741Z,8.03
2019-03-26T15:26:25.221Z,10.00
2019-03-26T15:31:28.701Z,9.35
2019-03-26T15:36:32.183Z,11.55
2019-03-26T15:41:35.654Z,9.25
2019-03-26T15:46:39.133Z,8.68
2019-03-26T15:51:42.610Z,8.55
2019-03-26T15:56:46.088Z,12.13
2019-03-26T16:01:49.557Z,13.90
2019-03-26T16:06:53.011Z,7.30
2019-03-26T16:11:56.471Z,8.38
2019-03-26T16:16:59.928Z,8.97
2019-03-26T16:22:03.391Z,7.90
2019-03-26T16:27:06.850Z,8.55
2019-03-26T16:32:10.314Z,7.58
2019-03-26T16:37:13.777Z,9.40
2019-03-26T16:42:17.237Z,6.15
2019-03-26T16:47:20.699Z,9.10
2019-03-26T16:52:26.631Z,5.47
2019-03-26T16:57:29.335Z,8.20
2019-03-26T17:02:32.799Z,6.90
2019-03-26T17:07:36.262Z,11.78
2019-03-26T17:12:39.719Z,9.00
2019-03-26T17:17:43.177Z,7.22
2019-03-26T17:22:46.636Z,8.37
2019-03-26T17:27:50.098Z,9.68
2019-03-26T17:32:53.628Z,8.30
2019-03-26T17:37:59.819Z,14.95
2019-03-26T17:43:02.276Z,7.50
2019-03-26T17:48:05.732Z,9.43
2019-03-26T17:53:09.192Z,8.73
2019-03-26T17:58:12.652Z,9.40
2019-03-26T18:03:26.166Z,9.83
2019-03-26T18:08:21.373Z,8.08
2019-03-26T18:13:24.872Z,8.68
2019-03-26T18:18:28.345Z,8.45
2019-03-26T18:23:31.796Z,6.90
2019-03-26T18:28:35.257Z,7.72
2019-03-26T18:33:38.726Z,7.75
2019-03-26T18:38:42.183Z,8.13
2019-03-26T18:43:45.645Z,7.58
2019-03-26T18:48:49.105Z,6.80
2019-03-26T18:53:52.564Z,6.80
2019-03-26T18:58:56.037Z,7.33
2019-03-26T19:03:59.484Z,5.35
2019-03-26T19:09:03.285Z,6.97
2019-03-26T19:14:06.747Z,5.08
2019-03-26T19:19:10.205Z,5.47
2019-03-26T19:24:13.669Z,6.95
2019-03-26T19:29:17.128Z,7.87
2019-03-26T19:34:20.583Z,5.90
2019-03-26T19:39:24.046Z,7.75
2019-03-26T19:44:27.504Z,4.00
2019-03-26T19:49:30.970Z,5.12
2019-03-26T19:54:34.424Z,4.33
2019-03-26T19:59:37.973Z,3.83
2019-03-26T20:04:41.432Z,4.33
2019-03-26T20:09:44.889Z,3.55
2019-03-26T20:14:48.359Z,4.45
2019-03-26T20:19:51.816Z,3.95
2019-03-26T20:24:55.281Z,3.17
2019-03-26T20:29:58.743Z,4.08
2019-03-26T20:35:02.199Z,3.30
2019-03-26T20:40:09.007Z,5.63
2019-03-26T20:45:14.526Z,3.43
2019-03-26T20:50:20.181Z,3.73
2019-03-26T20:55:29.568Z,2.57
2019-03-26T21:00:40.468Z,4.28
2019-03-26T21:05:43.931Z,4.57
2019-03-26T21:10:47.389Z,3.00
2019-03-26T21:15:57.173Z,3.85
2019-03-26T21:20:56.037Z,3.08
2019-03-26T21:25:59.499Z,3.65
2019-03-26T21:31:02.961Z,2.20
2019-03-26T21:36:06.421Z,3.08
2019-03-26T21:41:09.912Z,6.47
2019-03-26T21:46:13.339Z,4.90
2019-03-26T21:51:16.796Z,3.25
2019-03-26T21:56:20.261Z,7.80
2019-03-26T22:01:23.717Z,3.37
2019-03-26T22:06:27.176Z,3.77
2019-03-26T22:11:30.631Z,2.58
2019-03-26T22:16:34.092Z,2.60
2019-03-26T22:21:37.558Z,3.17
2019-03-26T22:26:41.015Z,2.50
2019-03-26T22:31:44.472Z,1.62
2019-03-26T22:36:47.927Z,5.22
2019-03-26T22:41:51.388Z,3.15
2019-03-26T22:46:54.847Z,1.98
2019-03-26T22:51:58.303Z,2.47
2019-03-26T22:57:01.760Z,1.98
2019-03-26T23:02:05.219Z,3.52
2019-03-26T23:07:08.680Z,3.02
2019-03-26T23:12:12.134Z,2.52
2019-03-26T23:17:15.592Z,3.63
2019-03-26T23:22:19.047Z,3.25
2019-03-26T23:27:22.521Z,2.07
2019-03-26T23:32:25.968Z,2.27
2019-03-26T23:37:29.427Z,2.00
2019-03-26T23:42:32.885Z,2.13
2019-03-26T23:47:36.339Z,2.55
2019-03-26T23:52:39.795Z,1.70
2019-03-26T23:57:43.256Z,1.75
